Time;durP1;ratioP1;P1;durP2;ratioP2;P2;SDS_P1;SDS_P2;PMS_P1;PMS_P2;Temp;Humidity;BMP_temperature;BMP_pressure;BME280_temperature;BME280_humidity;BME280_pressure;Samples;Min_cycle;Max_cycle;Signal;HPM_P1;HPM_P2
2023/10/29 00:03:25;;;;;;;1.40;1.10;;;;;;;-1.20;87.06;99869.63;10223425;28;20043;-72
2023/10/29 00:08:28;;;;;;;2.15;1.55;;;;;;;-1.19;87.52;99870.47;10266473;28;20047;-72
2023/10/29 00:13:31;;;;;;;3.53;1.77;;;;;;;-1.15;87.31;99877.03;10248681;28;20039;-72
2023/10/29 00:18:34;;;;;;;2.47;1.67;;;;;;;-1.15;86.97;99883.25;10291774;28;20584;-72
2023/10/29 00:23:37;;;;;;;1.50;1.38;;;;;;;-1.11;86.97;99873.66;10300730;28;20042;-72
2023/10/29 00:28:39;;;;;;;2.83;1.60;;;;;;;-1.15;86.64;99875.16;10253061;28;20047;-71
2023/10/29 00:33:42;;;;;;;2.60;1.42;;;;;;;-1.04;86.85;99868.19;10247661;28;20039;-72
2023/10/29 00:38:45;;;;;;;1.70;1.20;;;;;;;-1.09;86.40;99881.50;10250329;28;20050;-72
2023/10/29 00:43:49;;;;;;;2.70;1.38;;;;;;;-1.08;86.49;99875.06;10235733;28;20538;-71
2023/10/29 00:48:51;;;;;;;3.92;1.60;;;;;;;-1.08;86.34;99878.59;10284268;28;20040;-71
2023/10/29 00:53:54;;;;;;;2.28;1.30;;;;;;;-1.06;86.17;99883.75;10267867;28;20062;-71
2023/10/29 00:58:59;;;;;;;1.30;1.08;;;;;;;-1.05;85.57;99880.84;10269566;29;20600;-71
2023/10/29 01:04:01;;;;;;;4.03;1.70;;;;;;;-1.17;85.94;99897.97;10251911;28;20062;-72
2023/10/29 01:09:03;;;;;;;1.85;1.58;;;;;;;-1.18;85.77;99896.31;10234888;28;20051;-72
2023/10/29 01:14:05;;;;;;;2.10;1.75;;;;;;;-1.23;86.06;99891.59;10283200;29;20046;-71
2023/10/29 01:19:08;;;;;;;2.17;1.35;;;;;;;-1.22;85.79;99885.97;10265932;28;20043;-71
2023/10/29 01:24:10;;;;;;;2.67;1.33;;;;;;;-1.22;85.56;99898.63;10283535;28;20039;-71
2023/10/29 01:29:12;;;;;;;1.52;1.27;;;;;;;-1.21;85.85;99900.28;10264494;28;20047;-72
2023/10/29 01:34:14;;;;;;;2.67;1.30;;;;;;;-1.13;84.99;99899.16;10279164;28;20049;-72
2023/10/29 01:39:17;;;;;;;1.75;1.30;;;;;;;-1.18;84.81;99905.22;10213628;28;20127;-72
2023/10/29 01:44:19;;;;;;;1.83;1.40;;;;;;;-1.19;85.36;99895.50;10282736;28;20045;-72
2023/10/29 01:49:21;;;;;;;1.60;1.10;;;;;;;-1.18;84.44;99905.22;10284710;29;20039;-72
2023/10/29 01:54:23;;;;;;;2.50;1.45;;;;;;;-1.38;84.48;99913.50;10264545;28;20046;-72
2023/10/29 01:59:26;;;;;;;1.85;1.30;;;;;;;-1.34;84.59;99927.31;10264846;28;20062;-72
2023/10/29 02:04:30;;;;;;;3.63;1.20;;;;;;;-1.28;84.39;99931.81;10265704;28;20461;-71
2023/10/29 02:09:32;;;;;;;1.25;1.00;;;;;;;-1.39;83.59;99936.06;10283076;28;20047;-72
2023/10/29 02:14:36;;;;;;;1.90;1.17;;;;;;;-1.36;83.60;99937.50;10264604;28;20046;-72
2023/10/29 02:19:38;;;;;;;1.70;1.23;;;;;;;-1.34;83.27;99943.47;10309863;28;20047;-72
2023/10/29 02:24:40;;;;;;;2.65;1.27;;;;;;;-1.34;83.12;99943.47;10308277;28;20062;-71
2023/10/29 02:29:43;;;;;;;1.42;1.23;;;;;;;-1.35;82.89;99941.81;10280041;28;20046;-73
2023/10/29 02:34:45;;;;;;;1.83;1.23;;;;;;;-1.29;82.79;99952.53;10267803;28;20050;-73
2023/10/29 02:39:48;;;;;;;1.75;1.30;;;;;;;-1.36;82.49;99962.53;10303665;28;20035;-73
2023/10/29 02:44:50;;;;;;;1.15;1.05;;;;;;;-1.32;81.93;99957.53;10248735;28;20067;-72
2023/10/29 02:49:52;;;;;;;1.63;1.20;;;;;;;-1.24;81.82;99968.00;10268723;28;20031;-72
2023/10/29 02:54:56;;;;;;;2.45;1.63;;;;;;;-1.22;81.27;99982.88;10280742;28;20047;-72
2023/10/29 02:59:59;;;;;;;0.85;0.85;;;;;;;-1.12;81.40;99979.69;10269846;28;20050;-73
2023/10/29 03:05:02;;;;;;;1.40;1.13;;;;;;;-1.06;80.57;99989.56;10293072;28;20039;-72
2023/10/29 03:10:12;;;;;;;2.00;1.40;;;;;;;-1.16;80.18;99997.34;10521614;28;20601;-71
2023/10/29 03:15:14;;;;;;;3.10;1.20;;;;;;;-1.15;80.67;99996.31;10509146;28;20044;-71
2023/10/29 03:20:17;;;;;;;1.75;1.30;;;;;;;-1.13;80.71;99998.78;10465925;28;20038;-70
2023/10/29 03:25:19;;;;;;;2.70;1.50;;;;;;;-1.19;80.52;100011.25;10465593;28;20049;-70
2023/10/29 03:30:21;;;;;;;2.80;1.08;;;;;;;-1.09;81.03;100011.56;10469461;28;20517;-71
2023/10/29 03:35:27;;;;;;;3.22;1.17;;;;;;;-1.13;80.71;100017.63;10467538;28;20041;-71
2023/10/29 03:40:29;;;;;;;1.30;1.20;;;;;;;-1.18;81.08;100022.84;10482917;28;20041;-72
2023/10/29 03:45:32;;;;;;;2.05;1.50;;;;;;;-1.22;81.27;100028.63;10439514;28;20038;-72
2023/10/29 03:50:34;;;;;;;2.72;1.60;;;;;;;-1.22;81.36;100027.81;10434951;28;20041;-72
2023/10/29 03:55:37;;;;;;;1.77;1.50;;;;;;;-1.23;81.44;100020.78;10469163;28;20037;-72
2023/10/29 04:00:39;;;;;;;3.60;1.65;;;;;;;-1.28;81.78;100024.16;10452420;28;20052;-72
2023/10/29 04:05:41;;;;;;;1.80;1.50;;;;;;;-1.34;81.95;100034.97;10474582;28;20049;-72
2023/10/29 04:10:44;;;;;;;3.42;1.50;;;;;;;-1.41;83.01;100035.00;10460394;28;20044;-72
2023/10/29 04:15:48;;;;;;;2.55;1.52;;;;;;;-1.33;82.85;100031.22;10438007;28;20568;-73
2023/10/29 04:20:51;;;;;;;1.98;1.35;;;;;;;-1.28;82.99;100047.53;10443058;28;20048;-72
2023/10/29 04:25:53;;;;;;;3.10;1.55;;;;;;;-1.37;82.13;100038.09;10411696;28;20040;-72
2023/10/29 04:30:56;;;;;;;1.67;1.38;;;;;;;-1.37;82.99;100046.19;10429987;28;20057;-72
2023/10/29 04:35:58;;;;;;;1.88;1.50;;;;;;;-1.35;82.91;100049.47;10449672;28;20036;-72
2023/10/29 04:41:02;;;;;;;2.38;1.60;;;;;;;-1.39;82.75;100053.63;10470797;28;20033;-72
2023/10/29 04:46:04;;;;;;;2.53;1.40;;;;;;;-1.39;81.79;100062.53;10416154;28;20129;-72
2023/10/29 04:51:07;;;;;;;5.70;1.25;;;;;;;-1.33;82.02;100068.91;10424514;28;20037;-72
2023/10/29 04:56:09;;;;;;;3.47;1.70;;;;;;;-1.22;80.97;100077.09;10449098;28;20068;-73
2023/10/29 05:01:11;;;;;;;2.10;1.55;;;;;;;-1.28;80.71;100071.78;10445217;28;20049;-72
2023/10/29 05:06:20;;;;;;;3.03;1.35;;;;;;;-1.32;79.90;100079.47;10426987;28;20046;-72
2023/10/29 05:11:23;;;;;;;2.22;1.35;;;;;;;-1.40;79.38;100078.88;10430036;28;20402;-72
2023/10/29 05:16:25;;;;;;;1.02;0.98;;;;;;;-1.39;78.11;100086.75;10469971;28;20049;-72
2023/10/29 05:21:27;;;;;;;1.35;1.20;;;;;;;-1.35;78.02;100092.53;10423524;28;20038;-72
2023/10/29 05:26:29;;;;;;;2.33;1.10;;;;;;;-1.35;77.07;100103.28;10444499;28;20042;-72
2023/10/29 05:31:32;;;;;;;1.73;0.98;;;;;;;-1.32;76.71;100110.94;10420617;28;20037;-73
2023/10/29 05:36:35;;;;;;;0.82;0.73;;;;;;;-1.40;75.53;100101.22;10440779;28;20049;-72
2023/10/29 05:41:37;;;;;;;1.50;1.00;;;;;;;-1.31;75.68;100107.19;10407172;28;20037;-73
2023/10/29 05:46:39;;;;;;;1.42;1.23;;;;;;;-1.36;74.91;100121.31;10405035;28;20046;-72
2023/10/29 05:51:41;;;;;;;1.15;1.05;;;;;;;-1.25;74.37;100122.47;10426242;28;20048;-73
2023/10/29 05:56:43;;;;;;;1.50;1.10;;;;;;;-1.30;73.97;100125.00;10424536;28;20037;-73
2023/10/29 06:01:46;;;;;;;1.65;1.00;;;;;;;-1.36;73.82;100131.25;10403211;28;20049;-72
2023/10/29 06:06:48;;;;;;;2.75;1.60;;;;;;;-1.32;73.25;100130.59;10395875;28;20445;-72
2023/10/29 06:11:52;;;;;;;0.98;0.90;;;;;;;-1.35;73.25;100141.78;10429912;28;20041;-70
2023/10/29 06:16:57;;;;;;;1.75;1.10;;;;;;;-1.28;72.66;100144.44;10458539;28;20045;-72
2023/10/29 06:22:00;;;;;;;2.03;1.17;;;;;;;-1.32;72.34;100144.06;10479703;28;20041;-72
2023/10/29 06:27:02;;;;;;;1.40;0.98;;;;;;;-1.33;72.21;100147.78;10401651;28;20412;-73
2023/10/29 06:32:05;;;;;;;2.08;1.23;;;;;;;-1.29;71.92;100157.06;10433078;28;20040;-73
2023/10/29 06:37:08;;;;;;;1.88;1.20;;;;;;;-1.31;72.33;100163.72;10418223;28;20054;-73
2023/10/29 06:42:12;;;;;;;1.80;1.27;;;;;;;-1.15;73.09;100157.00;10431286;28;20520;-73
2023/10/29 06:47:14;;;;;;;1.42;1.00;;;;;;;-1.20;72.41;100163.03;10460543;28;20047;-72
2023/10/29 06:52:16;;;;;;;2.60;1.08;;;;;;;-1.23;72.47;100166.13;10459635;28;20032;-72
2023/10/29 06:57:20;;;;;;;2.08;1.30;;;;;;;-1.07;73.41;100173.72;10426596;28;20041;-73
2023/10/29 07:02:23;;;;;;;1.60;1.30;;;;;;;-1.08;72.57;100173.94;10424536;28;20051;-73
2023/10/29 07:07:28;;;;;;;4.55;1.45;;;;;;;-1.01;73.02;100186.31;10471551;28;20056;-72
2023/10/29 07:12:34;;;;;;;3.88;1.50;;;;;;;-0.96;73.32;100189.19;10443051;28;20049;-72
2023/10/29 07:17:36;;;;;;;2.28;1.20;;;;;;;-0.95;71.85;100187.31;10486347;28;20040;-73
2023/10/29 07:22:39;;;;;;;2.63;1.30;;;;;;;-1.00;70.98;100196.06;10463331;28;20582;-72
2023/10/29 07:27:42;;;;;;;2.63;1.10;;;;;;;-0.89;69.89;100196.38;10448409;28;20038;-73
2023/10/29 07:32:44;;;;;;;1.80;1.00;;;;;;;-1.06;68.91;100194.22;10448704;28;20092;-72
2023/10/29 07:37:50;;;;;;;1.38;1.10;;;;;;;-1.06;70.04;100199.59;10441646;28;20056;-72
2023/10/29 07:42:53;;;;;;;3.05;1.40;;;;;;;-1.01;69.32;100197.09;10456747;28;20041;-73
2023/10/29 07:47:55;;;;;;;2.28;1.48;;;;;;;-1.10;69.48;100201.06;10464549;28;20041;-73
2023/10/29 07:52:58;;;;;;;2.60;1.67;;;;;;;-1.09;68.93;100216.19;10427614;28;20045;-73
2023/10/29 07:58:00;;;;;;;3.08;1.40;;;;;;;-0.97;67.38;100213.66;10445147;28;20037;-72
2023/10/29 08:03:02;;;;;;;2.15;1.40;;;;;;;-0.98;66.58;100222.75;10418883;28;20045;-72
2023/10/29 08:08:05;;;;;;;2.53;1.60;;;;;;;-1.01;66.75;100225.91;10432178;28;20045;-71
2023/10/29 08:13:10;;;;;;;5.50;2.30;;;;;;;-0.75;67.15;100232.97;10410711;28;20052;-74
2023/10/29 08:18:14;;;;;;;5.55;1.98;;;;;;;-0.66;66.44;100232.50;10433269;28;20412;-73
2023/10/29 08:23:16;;;;;;;2.50;1.60;;;;;;;-0.72;66.02;100230.66;10415270;28;20044;-74
2023/10/29 08:28:20;;;;;;;4.43;1.90;;;;;;;-0.61;66.88;100227.28;10409521;28;20061;-75
2023/10/29 08:33:22;;;;;;;3.10;1.52;;;;;;;-0.63;66.89;100231.25;10423976;28;20040;-75
2023/10/29 08:38:24;;;;;;;3.17;1.70;;;;;;;-0.66;66.16;100237.06;10448849;28;20041;-73
2023/10/29 08:43:26;;;;;;;3.95;1.70;;;;;;;-0.68;66.35;100252.63;10449830;28;20540;-73
2023/10/29 08:48:29;;;;;;;3.22;1.63;;;;;;;-0.73;66.49;100252.44;10424295;28;20053;-74
2023/10/29 08:53:33;;;;;;;2.83;1.40;;;;;;;-0.65;65.93;100266.50;10413140;28;20033;-72
2023/10/29 08:58:36;;;;;;;2.20;1.42;;;;;;;-0.41;66.27;100272.97;10481591;28;20046;-73
2023/10/29 09:03:39;;;;;;;2.28;1.35;;;;;;;-0.12;66.09;100270.66;10407469;28;20053;-73
2023/10/29 09:08:42;;;;;;;3.92;1.50;;;;;;;0.00;64.66;100287.78;10474382;28;20046;-73
2023/10/29 09:13:45;;;;;;;2.90;1.50;;;;;;;0.12;64.89;100285.19;10429554;28;20049;-75
2023/10/29 09:18:48;;;;;;;2.95;1.83;;;;;;;0.12;65.21;100294.09;10407493;28;20034;-76
2023/10/29 09:23:50;;;;;;;1.92;1.50;;;;;;;0.22;64.87;100301.69;10424634;28;20041;-75
2023/10/29 09:28:53;;;;;;;2.55;1.40;;;;;;;0.13;64.47;100298.44;10396001;28;20037;-75
2023/10/29 09:33:56;;;;;;;3.83;2.13;;;;;;;0.15;63.65;100301.75;10443823;28;22573;-75
2023/10/29 09:38:58;;;;;;;5.32;1.60;;;;;;;0.15;64.14;100293.66;10468144;28;20038;-75
2023/10/29 09:44:07;;;;;;;5.82;1.80;;;;;;;0.17;63.10;100301.53;10409378;28;20042;-70
2023/10/29 09:49:13;;;;;;;2.55;1.50;;;;;;;0.15;62.89;100315.22;10409792;28;20045;-70
2023/10/29 09:54:15;;;;;;;5.65;1.90;;;;;;;0.19;62.83;100305.69;10415102;28;20045;-70
2023/10/29 09:59:17;;;;;;;2.45;1.58;;;;;;;0.09;62.34;100332.31;10408592;28;20413;-70
2023/10/29 10:04:20;;;;;;;2.25;1.55;;;;;;;0.21;62.08;100327.88;10413332;28;20050;-70
2023/10/29 10:09:23;;;;;;;2.00;1.13;;;;;;;0.12;61.40;100339.13;10425332;28;20049;-69
2023/10/29 10:14:26;;;;;;;3.05;1.65;;;;;;;0.28;61.46;100334.00;10404240;28;20537;-69
2023/10/29 10:19:28;;;;;;;3.60;1.88;;;;;;;0.13;61.67;100330.00;10405014;28;20038;-69
2023/10/29 10:24:43;;;;;;;2.28;1.05;;;;;;;0.13;61.60;100338.91;10449444;28;20041;-70
2023/10/29 10:29:49;;;;;;;3.70;1.70;;;;;;;0.24;61.73;100345.47;10453409;28;20643;-70
2023/10/29 10:34:52;;;;;;;3.15;1.50;;;;;;;0.38;61.40;100338.09;10433864;28;20049;-69
2023/10/29 10:39:54;;;;;;;2.60;1.73;;;;;;;0.12;61.44;100347.22;10421860;28;20048;-69
2023/10/29 10:44:58;;;;;;;6.03;1.60;;;;;;;0.20;61.93;100345.09;10432951;28;20037;-69
2023/10/29 10:50:01;;;;;;;3.78;1.63;;;;;;;0.41;62.16;100337.66;10423673;28;20133;-71
2023/10/29 10:55:04;;;;;;;3.75;1.75;;;;;;;0.29;61.32;100341.06;10420087;28;20133;-69
2023/10/29 11:00:10;;;;;;;1.80;1.50;;;;;;;0.36;61.26;100359.09;10411296;28;20072;-69
2023/10/29 11:05:15;;;;;;;2.35;1.50;;;;;;;0.50;61.19;100363.28;10418694;28;20416;-69
2023/10/29 11:10:17;;;;;;;1.88;1.02;;;;;;;0.39;59.12;100347.84;10406843;28;20034;-68
2023/10/29 11:15:21;;;;;;;0.77;0.75;;;;;;;0.37;58.49;100350.78;10425885;28;20042;-70
2023/10/29 11:20:39;;;;;;;5.53;1.42;;;;;;;0.39;59.41;100343.28;10414517;28;20567;-70
2023/10/29 11:25:41;;;;;;;5.93;1.43;;;;;;;0.26;59.78;100360.41;10410600;28;20061;-71
2023/10/29 11:31:16;;;;;;;2.33;1.38;;;;;;;0.28;60.27;100362.88;10403968;28;20129;-70
2023/10/29 11:36:42;;;;;;;4.57;1.63;;;;;;;0.41;59.98;100351.97;10414894;28;20091;-67
2023/10/29 11:41:52;;;;;;;2.97;1.92;;;;;;;0.53;61.06;100354.78;10418530;28;20052;-66
2023/10/29 11:47:03;;;;;;;4.55;2.78;;;;;;;0.42;60.43;100363.59;10412880;28;20048;-66
2023/10/29 11:52:06;;;;;;;3.72;2.08;;;;;;;0.50;61.09;100363.28;10444397;28;20040;-66
2023/10/29 11:57:08;;;;;;;6.00;1.88;;;;;;;0.45;61.12;100363.97;10443765;28;20033;-66
2023/10/29 12:02:14;;;;;;;2.85;1.48;;;;;;;0.40;61.03;100363.00;10427802;28;20145;-68
2023/10/29 12:07:26;;;;;;;5.45;1.70;;;;;;;0.33;63.06;100365.72;10455332;28;20079;-66
2023/10/29 12:12:28;;;;;;;6.50;3.03;;;;;;;0.37;62.80;100371.53;10439277;28;20068;-69
2023/10/29 12:17:30;;;;;;;3.60;2.17;;;;;;;0.33;62.97;100375.69;10425471;28;20037;-70
2023/10/29 12:22:32;;;;;;;5.53;2.70;;;;;;;0.41;63.59;100373.56;10438396;28;20045;-70
2023/10/29 12:27:39;;;;;;;2.80;1.90;;;;;;;0.53;63.90;100370.97;10447047;28;20037;-73
2023/10/29 12:32:41;;;;;;;6.38;2.17;;;;;;;0.44;63.89;100389.31;10431919;28;20428;-68
2023/10/29 12:37:51;;;;;;;4.80;2.25;;;;;;;0.35;63.82;100374.47;10426015;28;20046;-74
2023/10/29 12:42:56;;;;;;;2.53;1.70;;;;;;;0.34;63.57;100372.78;10431015;28;20040;-71
2023/10/29 12:48:11;;;;;;;3.58;2.15;;;;;;;0.33;63.07;100375.69;10450472;28;20045;-70
2023/10/29 12:53:33;;;;;;;3.28;1.85;;;;;;;0.23;63.23;100371.63;10467305;28;20048;-72
2023/10/29 12:58:35;;;;;;;5.38;1.75;;;;;;;0.32;63.69;100365.94;10437752;28;20042;-73
2023/10/29 13:03:37;;;;;;;7.53;2.25;;;;;;;0.39;63.47;100367.56;10436024;28;20067;-72
2023/10/29 13:08:40;;;;;;;2.90;1.73;;;;;;;0.38;63.56;100360.50;10490053;28;20049;-73
2023/10/29 13:13:42;;;;;;;5.10;1.98;;;;;;;0.35;63.85;100360.09;10455306;28;20049;-71
2023/10/29 13:18:44;;;;;;;2.92;1.98;;;;;;;0.34;62.92;100358.47;10477407;28;20044;-72
2023/10/29 13:23:46;;;;;;;3.20;1.98;;;;;;;0.30;63.16;100361.59;10489432;28;20420;-73
2023/10/29 13:28:49;;;;;;;5.05;1.95;;;;;;;0.29;63.70;100368.03;10458800;28;20042;-71
2023/10/29 13:33:52;;;;;;;5.85;2.38;;;;;;;0.32;63.56;100357.84;10427820;28;20045;-71
2023/10/29 13:38:54;;;;;;;6.28;2.22;;;;;;;0.36;64.37;100367.19;10431363;28;20041;-73
2023/10/29 13:43:57;;;;;;;5.55;3.00;;;;;;;0.18;64.35;100368.78;10418537;28;20038;-71
2023/10/29 13:49:00;;;;;;;4.30;2.55;;;;;;;0.18;64.10;100370.66;10431885;28;20036;-68
2023/10/29 13:54:02;;;;;;;5.45;3.00;;;;;;;0.17;64.39;100375.19;10449190;28;20041;-68
2023/10/29 13:59:04;;;;;;;5.18;2.47;;;;;;;0.19;64.79;100373.13;10438176;28;20048;-69
2023/10/29 14:04:07;;;;;;;4.10;2.92;;;;;;;0.25;64.81;100374.13;10406670;28;20441;-70
2023/10/29 14:09:09;;;;;;;8.05;2.65;;;;;;;0.26;64.64;100381.97;10404989;28;20042;-70
2023/10/29 14:14:11;;;;;;;5.68;2.60;;;;;;;0.21;64.86;100381.00;10411951;28;20543;-69
2023/10/29 14:19:14;;;;;;;5.68;2.42;;;;;;;0.27;65.23;100388.22;10447855;28;20517;-69
2023/10/29 14:24:16;;;;;;;7.10;3.42;;;;;;;0.13;65.72;100382.09;10423155;28;20036;-69
2023/10/29 14:29:18;;;;;;;3.47;2.80;;;;;;;0.10;66.68;100390.63;10426055;28;20041;-69
2023/10/29 14:34:20;;;;;;;8.13;3.45;;;;;;;0.02;68.33;100392.78;10458073;28;20064;-70
2023/10/29 14:39:23;;;;;;;6.57;3.33;;;;;;;-0.14;72.06;100410.28;10413718;28;20405;-69
2023/10/29 14:44:25;;;;;;;4.45;2.50;;;;;;;-0.24;73.94;100401.84;10431173;28;20029;-70
2023/10/29 14:49:27;;;;;;;5.28;2.75;;;;;;;-0.24;75.14;100408.06;10437904;28;20044;-70
2023/10/29 14:54:31;;;;;;;5.53;2.58;;;;;;;-0.37;75.65;100405.44;10442714;28;20034;-69
2023/10/29 14:59:33;;;;;;;5.78;2.55;;;;;;;0.04;77.43;100412.25;10408311;28;20048;-70
2023/10/29 15:04:36;;;;;;;7.13;2.95;;;;;;;0.58;71.89;100412.44;10449532;28;20037;-69
2023/10/29 15:09:38;;;;;;;6.05;3.65;;;;;;;-0.07;73.18;100413.75;10425067;28;20068;-70
2023/10/29 15:14:45;;;;;;;3.80;2.55;;;;;;;-0.36;74.46;100413.28;10423843;28;20052;-69
2023/10/29 15:19:52;;;;;;;5.82;2.92;;;;;;;-0.55;74.82;100424.16;10452589;28;20038;-70
2023/10/29 15:24:54;;;;;;;3.70;2.30;;;;;;;-0.69;75.38;100426.94;10436575;28;20040;-69
2023/10/29 15:29:56;;;;;;;7.05;3.40;;;;;;;-0.77;75.98;100423.63;10432806;28;20545;-70
2023/10/29 15:35:00;;;;;;;4.97;3.20;;;;;;;-0.74;76.38;100410.56;10443311;28;20527;-69
2023/10/29 15:40:02;;;;;;;6.03;3.30;;;;;;;-0.73;76.23;100419.47;10436852;28;20042;-70
2023/10/29 15:45:05;;;;;;;7.13;2.67;;;;;;;-0.78;76.49;100413.91;10452644;28;20052;-70
2023/10/29 15:50:08;;;;;;;4.50;3.30;;;;;;;-0.77;76.67;100410.16;10439722;28;20059;-69
2023/10/29 15:55:11;;;;;;;5.22;2.67;;;;;;;-0.79;76.66;100406.88;10442043;28;20040;-69
2023/10/29 16:00:13;;;;;;;8.23;2.75;;;;;;;-0.64;77.13;100423.59;10435780;28;20519;-69
2023/10/29 16:05:15;;;;;;;5.28;2.60;;;;;;;-0.57;76.35;100413.59;10431495;28;20041;-70
2023/10/29 16:10:18;;;;;;;4.32;2.40;;;;;;;-0.54;75.78;100423.94;10385051;28;20038;-70
2023/10/29 16:15:20;;;;;;;3.53;2.63;;;;;;;-0.49;75.80;100424.16;10432802;28;20037;-70
2023/10/29 16:20:23;;;;;;;6.03;3.10;;;;;;;-0.57;76.01;100428.94;10451627;28;20037;-70
2023/10/29 16:25:25;;;;;;;5.13;2.72;;;;;;;-0.62;76.26;100429.59;10439250;28;20408;-70
2023/10/29 16:30:27;;;;;;;4.80;2.28;;;;;;;-0.62;76.84;100421.50;10436776;28;20046;-70
2023/10/29 16:35:30;;;;;;;8.73;4.07;;;;;;;-0.75;77.74;100421.56;10446671;28;20060;-70
2023/10/29 16:40:32;;;;;;;7.63;3.38;;;;;;;-0.81;78.19;100417.84;10445526;28;20037;-70
2023/10/29 16:45:37;;;;;;;8.80;3.33;;;;;;;-0.70;77.85;100427.13;10441680;28;20068;-69
2023/10/29 16:50:40;;;;;;;5.85;3.88;;;;;;;-0.73;76.85;100419.47;10446195;28;20037;-70
2023/10/29 16:55:42;;;;;;;11.90;4.45;;;;;;;-0.82;77.40;100412.69;10445168;28;20040;-69
2023/10/29 17:00:47;;;;;;;5.63;3.60;;;;;;;-0.88;78.43;100410.81;10442256;28;20413;-69
2023/10/29 17:05:49;;;;;;;8.82;4.70;;;;;;;-0.89;79.12;100415.38;10438365;28;20076;-69
2023/10/29 17:10:56;;;;;;;8.82;3.95;;;;;;;-0.82;79.31;100420.75;10429331;28;20115;-69
2023/10/29 17:15:59;;;;;;;8.95;5.03;;;;;;;-0.86;78.97;100427.63;10429263;28;20052;-69
2023/10/29 17:21:02;;;;;;;4.60;3.10;;;;;;;-0.79;79.65;100420.34;10436230;28;20038;-69
2023/10/29 17:26:12;;;;;;;16.13;5.13;;;;;;;-0.84;79.94;100422.84;10424547;28;20532;-69
2023/10/29 17:31:16;;;;;;;10.52;4.35;;;;;;;-0.88;80.32;100432.38;10426968;28;20460;-70
2023/10/29 17:36:19;;;;;;;11.23;4.25;;;;;;;-0.79;80.51;100429.25;10427793;28;20048;-70
2023/10/29 17:41:22;;;;;;;7.97;4.03;;;;;;;-0.74;80.34;100433.97;10417420;28;20029;-69
2023/10/29 17:46:24;;;;;;;15.07;3.80;;;;;;;-0.72;80.13;100431.91;10415430;28;20049;-70
2023/10/29 17:51:26;;;;;;;10.25;4.38;;;;;;;-0.67;79.48;100437.50;10409984;28;20037;-72
2023/10/29 17:56:29;;;;;;;10.00;4.32;;;;;;;-0.66;80.42;100439.16;10410429;28;20501;-71
2023/10/29 18:01:31;;;;;;;11.05;4.53;;;;;;;-0.63;80.12;100439.56;10361345;23;20054;-68
2023/10/29 18:06:33;;;;;;;9.02;4.30;;;;;;;-0.69;80.36;100442.28;10367378;28;20042;-70
2023/10/29 18:11:35;;;;;;;11.05;4.55;;;;;;;-0.70;80.17;100430.66;10345131;28;20049;-68
2023/10/29 18:16:37;;;;;;;9.02;4.30;;;;;;;-0.66;80.76;100429.19;10398329;23;20053;-68
2023/10/29 18:21:40;;;;;;;8.63;4.22;;;;;;;-0.61;80.82;100426.69;10392602;28;20425;-70
2023/10/29 18:26:43;;;;;;;7.35;4.35;;;;;;;-0.68;80.99;100422.38;10406060;23;20054;-80
2023/10/29 18:31:45;;;;;;;9.60;4.00;;;;;;;-0.85;81.14;100422.03;10356281;28;20045;-73
2023/10/29 18:36:48;;;;;;;6.68;4.32;;;;;;;-0.87;82.18;100417.84;10338314;28;20072;-72
2023/10/29 18:41:50;;;;;;;8.15;3.58;;;;;;;-0.93;82.13;100409.59;10401751;22;20050;-68
2023/10/29 18:46:52;;;;;;;12.30;4.32;;;;;;;-0.97;82.13;100435.28;10372218;28;20049;-69
2023/10/29 18:51:58;;;;;;;10.95;5.78;;;;;;;-0.88;82.78;100438.56;10357517;28;20038;-71
2023/10/29 18:57:02;;;;;;;10.18;5.20;;;;;;;-0.92;82.29;100435.47;10386503;23;20545;-70
2023/10/29 19:02:05;;;;;;;12.23;5.53;;;;;;;-0.87;83.00;100439.41;10379905;28;20480;-69
2023/10/29 19:07:10;;;;;;;8.25;4.78;;;;;;;-0.82;82.62;100437.75;10374962;28;20045;-70
2023/10/29 19:12:13;;;;;;;9.90;5.85;;;;;;;-0.85;82.73;100440.88;10399835;28;20033;-70
2023/10/29 19:17:15;;;;;;;13.52;5.80;;;;;;;-0.88;82.95;100437.75;10395582;28;20052;-68
2023/10/29 19:22:18;;;;;;;11.60;6.65;;;;;;;-0.86;82.80;100441.09;10399474;28;20452;-72
2023/10/29 19:27:21;;;;;;;10.50;5.72;;;;;;;-0.93;83.31;100441.09;10402236;23;20216;-70
2023/10/29 19:32:24;;;;;;;10.38;5.80;;;;;;;-0.92;83.42;100446.25;10385730;28;20680;-71
2023/10/29 19:37:27;;;;;;;12.02;5.75;;;;;;;-0.97;82.99;100451.47;10392794;28;20042;-72
2023/10/29 19:42:29;;;;;;;12.95;6.03;;;;;;;-0.99;83.13;100453.53;10411822;23;20057;-68
2023/10/29 19:47:31;;;;;;;11.48;6.65;;;;;;;-0.91;83.69;100439.81;10389840;28;20046;-68
2023/10/29 19:52:34;;;;;;;8.80;5.93;;;;;;;-0.87;83.44;100442.91;10396397;28;20429;-68
2023/10/29 19:57:36;;;;;;;8.88;4.88;;;;;;;-0.83;83.38;100438.78;10388709;23;20065;-67
2023/10/29 20:02:38;;;;;;;9.98;5.93;;;;;;;-0.88;83.72;100426.97;10350974;28;20074;-67
2023/10/29 20:07:40;;;;;;;11.30;5.60;;;;;;;-0.93;84.31;100431.13;10362365;28;20038;-67
2023/10/29 20:12:44;;;;;;;9.88;5.60;;;;;;;-0.92;83.92;100440.88;10334032;23;20057;-73
2023/10/29 20:17:46;;;;;;;10.93;6.35;;;;;;;-0.86;84.07;100433.00;10315777;28;20054;-73
2023/10/29 20:22:50;;;;;;;8.38;5.32;;;;;;;-0.85;84.28;100429.28;10305292;28;20043;-76
2023/10/29 20:27:52;;;;;;;11.00;5.55;;;;;;;-0.85;84.39;100432.78;10322555;28;20073;-73
2023/10/29 20:32:54;;;;;;;9.98;5.90;;;;;;;-0.79;84.62;100425.72;10313382;28;20039;-72
2023/10/29 20:37:56;;;;;;;8.82;5.22;;;;;;;-0.76;84.41;100417.22;10321551;28;20461;-72
2023/10/29 20:42:59;;;;;;;10.10;6.18;;;;;;;-0.70;84.48;100424.44;10409961;22;20224;-70
2023/10/29 20:48:01;;;;;;;12.35;6.32;;;;;;;-0.61;84.60;100417.78;10393019;28;20040;-68
2023/10/29 20:53:03;;;;;;;10.88;6.55;;;;;;;-0.39;84.19;100405.63;10398472;28;20042;-67
2023/10/29 20:58:05;;;;;;;12.05;6.18;;;;;;;-0.47;84.41;100411.28;10412506;23;20057;-70
2023/10/29 21:03:07;;;;;;;10.95;5.80;;;;;;;-0.50;84.44;100419.00;10398051;28;20046;-70
2023/10/29 21:08:09;;;;;;;13.70;6.28;;;;;;;-0.52;84.76;100421.91;10385539;28;20041;-70
2023/10/29 21:13:12;;;;;;;11.05;6.28;;;;;;;-0.54;84.80;100421.25;10405394;23;20065;-69
2023/10/29 21:18:14;;;;;;;10.43;6.30;;;;;;;-0.55;84.88;100413.38;10401443;28;20047;-68
2023/10/29 21:23:16;;;;;;;11.23;6.43;;;;;;;-0.60;84.96;100400.56;10398609;28;20069;-68
2023/10/29 21:28:18;;;;;;;9.27;6.00;;;;;;;-0.63;85.49;100395.59;10405953;23;20061;-69
2023/10/29 21:33:20;;;;;;;15.10;6.57;;;;;;;-0.75;85.71;100383.84;10418175;28;20053;-68
2023/10/29 21:38:23;;;;;;;11.55;6.40;;;;;;;-0.71;85.77;100380.50;10408337;28;20044;-68
2023/10/29 21:43:25;;;;;;;12.20;6.07;;;;;;;-0.67;85.96;100367.44;10423281;22;20058;-70
2023/10/29 21:48:27;;;;;;;10.90;5.95;;;;;;;-0.64;86.40;100359.75;10350720;28;20167;-70
2023/10/29 21:53:29;;;;;;;15.65;6.68;;;;;;;-0.56;86.71;100361.38;10349055;28;20545;-70
2023/10/29 21:58:32;;;;;;;13.20;6.38;;;;;;;-0.52;86.67;100359.06;10366882;23;20613;-70
2023/10/29 22:03:34;;;;;;;12.15;6.10;;;;;;;-0.50;86.29;100352.44;10353784;28;20049;-72
2023/10/29 22:08:36;;;;;;;9.52;5.68;;;;;;;-0.47;86.55;100353.88;10358522;28;20070;-71
2023/10/29 22:13:42;;;;;;;11.95;5.93;;;;;;;-0.50;86.46;100352.44;10374708;23;20081;-70
2023/10/29 22:18:44;;;;;;;11.25;6.50;;;;;;;-0.39;86.94;100353.59;10356703;28;20074;-69
2023/10/29 22:23:46;;;;;;;14.10;7.35;;;;;;;-0.39;86.77;100343.66;10364670;28;20042;-69
2023/10/29 22:28:48;;;;;;;13.02;7.18;;;;;;;-0.37;86.58;100341.56;10338645;23;20046;-67
2023/10/29 22:33:50;;;;;;;12.43;6.85;;;;;;;-0.38;86.54;100339.06;10318686;28;20084;-67
2023/10/29 22:38:53;;;;;;;14.00;6.32;;;;;;;-0.40;86.69;100346.56;10326189;28;20034;-67
2023/10/29 22:43:55;;;;;;;14.13;6.97;;;;;;;-0.40;86.79;100349.25;10335675;23;20522;-70
2023/10/29 22:48:57;;;;;;;10.07;6.70;;;;;;;-0.35;87.16;100341.34;10313023;28;20043;-70
2023/10/29 22:54:00;;;;;;;12.63;7.50;;;;;;;-0.38;87.26;100342.59;10318192;28;20042;-69
2023/10/29 22:59:02;;;;;;;14.20;7.45;;;;;;;-0.43;86.46;100344.31;10330537;23;20061;-67
2023/10/29 23:04:05;;;;;;;13.23;6.82;;;;;;;-0.42;86.98;100357.56;10327096;28;20050;-67
2023/10/29 23:09:08;;;;;;;11.27;6.55;;;;;;;-0.43;87.52;100339.72;10303452;28;20043;-67
2023/10/29 23:14:11;;;;;;;15.13;6.50;;;;;;;-0.43;87.04;100334.34;10342209;23;20062;-76
2023/10/29 23:19:14;;;;;;;11.00;6.22;;;;;;;-0.43;87.04;100323.56;10328144;28;20038;-75